sensor_id;sensor_type;location;lat;lon;timestamp;temperature;humidity
6462;DHT22;3264;42.862;25.098;2023-09-08T00:01:11;15.70;99.90
6462;DHT22;3264;42.862;25.098;2023-09-08T00:03:39;15.60;99.90
6462;DHT22;3264;42.862;25.098;2023-09-08T00:06:07;15.60;99.90
6462;DHT22;3264;42.862;25.098;2023-09-08T00:08:36;15.60;99.90
6462;DHT22;3264;42.862;25.098;2023-09-08T00:11:04;15.50;99.90
6462;DHT22;3264;42.862;25.098;2023-09-08T00:13:33;15.50;99.90
6462;DHT22;3264;42.862;25.098;2023-09-08T00:16:03;15.50;99.90
6462;DHT22;3264;42.862;25.098;2023-09-08T00:18:33;15.40;99.90
6462;DHT22;3264;42.862;25.098;2023-09-08T00:21:02;15.40;99.90
6462;DHT22;3264;42.862;25.098;2023-09-08T00:23:29;15.40;99.90
6462;DHT22;3264;42.862;25.098;2023-09-08T00:25:58;15.30;99.90
6462;DHT22;3264;42.862;25.098;2023-09-08T00:28:26;15.30;99.90
6462;DHT22;3264;42.862;25.098;2023-09-08T00:30:54;15.40;99.90
6462;DHT22;3264;42.862;25.098;2023-09-08T00:33:24;15.40;99.90
6462;DHT22;3264;42.862;25.098;2023-09-08T00:35:52;15.30;99.90
6462;DHT22;3264;42.862;25.098;2023-09-08T00:38:34;15.30;99.90
6462;DHT22;3264;42.862;25.098;2023-09-08T00:41:05;15.30;99.90
6462;DHT22;3264;42.862;25.098;2023-09-08T00:43:40;15.20;99.90
6462;DHT22;3264;42.862;25.098;2023-09-08T00:46:09;15.20;99.90
6462;DHT22;3264;42.862;25.098;2023-09-08T00:48:40;15.20;99.90
6462;DHT22;3264;42.862;25.098;2023-09-08T00:51:17;15.20;99.90
6462;DHT22;3264;42.862;25.098;2023-09-08T00:53:45;15.20;99.90
6462;DHT22;3264;42.862;25.098;2023-09-08T00:56:13;15.20;99.90
6462;DHT22;3264;42.862;25.098;2023-09-08T00:58:45;15.20;99.90
6462;DHT22;3264;42.862;25.098;2023-09-08T01:01:19;15.20;99.90
6462;DHT22;3264;42.862;25.098;2023-09-08T01:03:51;15.20;99.90
6462;DHT22;3264;42.862;25.098;2023-09-08T01:06:19;15.20;99.90
6462;DHT22;3264;42.862;25.098;2023-09-08T01:08:50;15.20;99.90
6462;DHT22;3264;42.862;25.098;2023-09-08T01:11:19;15.10;99.90
6462;DHT22;3264;42.862;25.098;2023-09-08T01:13:50;15.10;99.90
6462;DHT22;3264;42.862;25.098;2023-09-08T01:16:18;15.00;99.90
6462;DHT22;3264;42.862;25.098;2023-09-08T01:18:46;15.00;99.90
6462;DHT22;3264;42.862;25.098;2023-09-08T01:21:42;15.00;99.90
6462;DHT22;3264;42.862;25.098;2023-09-08T01:27:37;14.90;99.90
6462;DHT22;3264;42.862;25.098;2023-09-08T01:30:08;14.90;99.90
6462;DHT22;3264;42.862;25.098;2023-09-08T01:32:37;14.90;99.90
6462;DHT22;3264;42.862;25.098;2023-09-08T01:35:08;14.80;99.90
6462;DHT22;3264;42.862;25.098;2023-09-08T01:37:42;14.80;99.90
6462;DHT22;3264;42.862;25.098;2023-09-08T01:40:43;14.70;99.90
6462;DHT22;3264;42.862;25.098;2023-09-08T01:43:14;14.80;99.90
6462;DHT22;3264;42.862;25.098;2023-09-08T01:45:42;14.70;99.90
6462;DHT22;3264;42.862;25.098;2023-09-08T01:48:10;14.70;99.90
6462;DHT22;3264;42.862;25.098;2023-09-08T01:50:38;14.80;99.90
6462;DHT22;3264;42.862;25.098;2023-09-08T01:53:13;14.70;99.90
6462;DHT22;3264;42.862;25.098;2023-09-08T01:55:47;14.80;99.90
6462;DHT22;3264;42.862;25.098;2023-09-08T01:58:20;14.70;99.90
6462;DHT22;3264;42.862;25.098;2023-09-08T02:00:49;14.70;99.90
6462;DHT22;3264;42.862;25.098;2023-09-08T02:03:17;14.70;99.90
6462;DHT22;3264;42.862;25.098;2023-09-08T02:05:47;14.60;99.90
6462;DHT22;3264;42.862;25.098;2023-09-08T02:08:14;14.60;99.90
6462;DHT22;3264;42.862;25.098;2023-09-08T02:10:45;14.60;99.90
6462;DHT22;3264;42.862;25.098;2023-09-08T02:13:19;14.50;99.90
6462;DHT22;3264;42.862;25.098;2023-09-08T02:15:47;14.40;99.90
6462;DHT22;3264;42.862;25.098;2023-09-08T02:18:17;14.40;99.90
6462;DHT22;3264;42.862;25.098;2023-09-08T02:20:50;14.40;99.90
6462;DHT22;3264;42.862;25.098;2023-09-08T02:23:22;14.40;99.90
6462;DHT22;3264;42.862;25.098;2023-09-08T02:25:55;14.40;99.90
6462;DHT22;3264;42.862;25.098;2023-09-08T02:28:30;14.30;99.90
6462;DHT22;3264;42.862;25.098;2023-09-08T02:31:05;14.30;99.90
6462;DHT22;3264;42.862;25.098;2023-09-08T02:33:35;14.30;99.90
6462;DHT22;3264;42.862;25.098;2023-09-08T02:36:05;14.20;99.90
6462;DHT22;3264;42.862;25.098;2023-09-08T02:38:37;14.20;99.90
6462;DHT22;3264;42.862;25.098;2023-09-08T02:41:06;14.20;99.90
6462;DHT22;3264;42.862;25.098;2023-09-08T02:43:37;14.10;99.90
6462;DHT22;3264;42.862;25.098;2023-09-08T02:46:08;14.10;99.90
6462;DHT22;3264;42.862;25.098;2023-09-08T02:48:37;14.10;99.90
6462;DHT22;3264;42.862;25.098;2023-09-08T02:51:08;14.10;99.90
6462;DHT22;3264;42.862;25.098;2023-09-08T02:53:35;14.10;99.90
6462;DHT22;3264;42.862;25.098;2023-09-08T02:56:06;14.20;99.90
6462;DHT22;3264;42.862;25.098;2023-09-08T02:58:38;14.10;99.90
6462;DHT22;3264;42.862;25.098;2023-09-08T03:01:10;14.10;99.90
6462;DHT22;3264;42.862;25.098;2023-09-08T03:03:43;14.10;99.90
6462;DHT22;3264;42.862;25.098;2023-09-08T03:06:11;14.10;99.90
6462;DHT22;3264;42.862;25.098;2023-09-08T03:08:39;14.00;99.90
6462;DHT22;3264;42.862;25.098;2023-09-08T03:11:24;14.00;99.90
6462;DHT22;3264;42.862;25.098;2023-09-08T03:13:56;14.00;99.90
6462;DHT22;3264;42.862;25.098;2023-09-08T03:16:24;14.00;99.90
6462;DHT22;3264;42.862;25.098;2023-09-08T03:18:52;13.90;99.90
6462;DHT22;3264;42.862;25.098;2023-09-08T03:21:19;13.90;99.90
6462;DHT22;3264;42.862;25.098;2023-09-08T03:23:47;13.90;99.90
6462;DHT22;3264;42.862;25.098;2023-09-08T03:26:15;13.90;99.90
6462;DHT22;3264;42.862;25.098;2023-09-08T03:28:45;14.00;99.90
6462;DHT22;3264;42.862;25.098;2023-09-08T03:31:42;13.90;99.90
6462;DHT22;3264;42.862;25.098;2023-09-08T03:34:10;13.90;99.90
6462;DHT22;3264;42.862;25.098;2023-09-08T03:36:38;13.90;99.90
6462;DHT22;3264;42.862;25.098;2023-09-08T03:39:08;14.00;99.90
6462;DHT22;3264;42.862;25.098;2023-09-08T03:41:42;14.00;99.90
6462;DHT22;3264;42.862;25.098;2023-09-08T03:44:09;14.00;99.90
6462;DHT22;3264;42.862;25.098;2023-09-08T03:46:37;13.90;99.90
6462;DHT22;3264;42.862;25.098;2023-09-08T03:49:15;14.00;99.90
6462;DHT22;3264;42.862;25.098;2023-09-08T03:51:49;14.00;99.90
6462;DHT22;3264;42.862;25.098;2023-09-08T03:54:16;14.00;99.90
6462;DHT22;3264;42.862;25.098;2023-09-08T03:56:44;13.90;99.90
6462;DHT22;3264;42.862;25.098;2023-09-08T03:59:28;14.00;99.90
6462;DHT22;3264;42.862;25.098;2023-09-08T04:01:58;13.90;99.90
6462;DHT22;3264;42.862;25.098;2023-09-08T04:04:31;13.90;99.90
6462;DHT22;3264;42.862;25.098;2023-09-08T04:07:03;13.90;99.90
6462;DHT22;3264;42.862;25.098;2023-09-08T04:09:33;13.90;99.90
6462;DHT22;3264;42.862;25.098;2023-09-08T04:12:02;13.90;99.90
6462;DHT22;3264;42.862;25.098;2023-09-08T04:14:31;13.90;99.90
6462;DHT22;3264;42.862;25.098;2023-09-08T04:17:00;14.00;99.90
6462;DHT22;3264;42.862;25.098;2023-09-08T04:19:27;14.00;99.90
6462;DHT22;3264;42.862;25.098;2023-09-08T04:21:58;14.00;99.90
6462;DHT22;3264;42.862;25.098;2023-09-08T04:24:26;14.10;99.90
6462;DHT22;3264;42.862;25.098;2023-09-08T04:30:19;14.30;99.90
6462;DHT22;3264;42.862;25.098;2023-09-08T04:32:52;14.30;99.90
6462;DHT22;3264;42.862;25.098;2023-09-08T04:35:20;14.40;99.90
6462;DHT22;3264;42.862;25.098;2023-09-08T04:37:51;14.50;99.90
6462;DHT22;3264;42.862;25.098;2023-09-08T04:40:22;14.50;99.90
6462;DHT22;3264;42.862;25.098;2023-09-08T04:42:50;14.70;99.90
6462;DHT22;3264;42.862;25.098;2023-09-08T04:45:17;14.70;99.90
6462;DHT22;3264;42.862;25.098;2023-09-08T04:47:48;14.70;99.90
6462;DHT22;3264;42.862;25.098;2023-09-08T04:50:20;14.70;99.90
6462;DHT22;3264;42.862;25.098;2023-09-08T04:53:02;14.80;99.90
6462;DHT22;3264;42.862;25.098;2023-09-08T04:55:31;14.80;99.90
6462;DHT22;3264;42.862;25.098;2023-09-08T04:58:07;14.60;99.90
6462;DHT22;3264;42.862;25.098;2023-09-08T05:00:40;14.70;99.90
6462;DHT22;3264;42.862;25.098;2023-09-08T05:03:08;14.70;99.90
6462;DHT22;3264;42.862;25.098;2023-09-08T05:05:36;14.90;99.90
6462;DHT22;3264;42.862;25.098;2023-09-08T05:08:06;14.90;99.90
6462;DHT22;3264;42.862;25.098;2023-09-08T05:10:43;15.00;99.90
6462;DHT22;3264;42.862;25.098;2023-09-08T05:24:52;15.10;99.90
6462;DHT22;3264;42.862;25.098;2023-09-08T05:27:21;15.40;99.90
6462;DHT22;3264;42.862;25.098;2023-09-08T05:29:50;15.30;99.90
6462;DHT22;3264;42.862;25.098;2023-09-08T05:32:18;15.50;99.90
6462;DHT22;3264;42.862;25.098;2023-09-08T05:34:45;15.50;99.90
6462;DHT22;3264;42.862;25.098;2023-09-08T05:37:21;15.70;99.90
6462;DHT22;3264;42.862;25.098;2023-09-08T05:40:09;15.90;99.90
6462;DHT22;3264;42.862;25.098;2023-09-08T05:42:36;16.10;99.90
6462;DHT22;3264;42.862;25.098;2023-09-08T05:45:05;16.30;99.90
6462;DHT22;3264;42.862;25.098;2023-09-08T05:48:24;16.30;99.90
6462;DHT22;3264;42.862;25.098;2023-09-08T05:50:52;16.60;99.90
6462;DHT22;3264;42.862;25.098;2023-09-08T05:56:52;17.10;99.90
6462;DHT22;3264;42.862;25.098;2023-09-08T05:59:22;17.30;99.90
6462;DHT22;3264;42.862;25.098;2023-09-08T06:01:50;17.10;99.90
6462;DHT22;3264;42.862;25.098;2023-09-08T06:04:17;17.30;99.90
6462;DHT22;3264;42.862;25.098;2023-09-08T06:06:50;17.30;99.90
6462;DHT22;3264;42.862;25.098;2023-09-08T06:09:20;17.40;99.90
6462;DHT22;3264;42.862;25.098;2023-09-08T06:11:48;17.70;99.90
6462;DHT22;3264;42.862;25.098;2023-09-08T06:14:17;18.00;99.90
6462;DHT22;3264;42.862;25.098;2023-09-08T06:16:45;18.20;99.90
6462;DHT22;3264;42.862;25.098;2023-09-08T06:19:13;18.50;99.90
6462;DHT22;3264;42.862;25.098;2023-09-08T06:21:43;19.00;99.90
6462;DHT22;3264;42.862;25.098;2023-09-08T06:24:13;19.40;99.90
6462;DHT22;3264;42.862;25.098;2023-09-08T06:26:44;19.70;99.90
6462;DHT22;3264;42.862;25.098;2023-09-08T06:29:12;19.80;99.90
6462;DHT22;3264;42.862;25.098;2023-09-08T06:31:57;20.10;99.90
6462;DHT22;3264;42.862;25.098;2023-09-08T06:34:30;20.60;99.90
6462;DHT22;3264;42.862;25.098;2023-09-08T06:37:11;20.80;99.80
6462;DHT22;3264;42.862;25.098;2023-09-08T06:39:42;21.20;99.90
6462;DHT22;3264;42.862;25.098;2023-09-08T06:42:10;21.30;98.40
6462;DHT22;3264;42.862;25.098;2023-09-08T06:44:37;21.20;99.60
6462;DHT22;3264;42.862;25.098;2023-09-08T06:51:06;21.90;99.90
6462;DHT22;3264;42.862;25.098;2023-09-08T06:53:34;22.30;99.90
6462;DHT22;3264;42.862;25.098;2023-09-08T06:56:02;22.40;98.90
6462;DHT22;3264;42.862;25.098;2023-09-08T06:58:43;22.70;98.30
6462;DHT22;3264;42.862;25.098;2023-09-08T07:01:11;23.10;96.90
6462;DHT22;3264;42.862;25.098;2023-09-08T07:03:39;23.30;96.10
6462;DHT22;3264;42.862;25.098;2023-09-08T07:06:11;23.60;95.40
6462;DHT22;3264;42.862;25.098;2023-09-08T07:08:39;23.80;93.80
6462;DHT22;3264;42.862;25.098;2023-09-08T07:11:06;23.60;93.60
6462;DHT22;3264;42.862;25.098;2023-09-08T07:13:34;23.30;92.30
6462;DHT22;3264;42.862;25.098;2023-09-08T07:16:02;23.60;93.10
6462;DHT22;3264;42.862;25.098;2023-09-08T07:18:31;23.70;93.20
6462;DHT22;3264;42.862;25.098;2023-09-08T07:21:05;23.70;93.30
6462;DHT22;3264;42.862;25.098;2023-09-08T07:23:34;24.10;93.70
6462;DHT22;3264;42.862;25.098;2023-09-08T07:26:05;24.00;92.60
6462;DHT22;3264;42.862;25.098;2023-09-08T07:38:56;25.40;91.20
6462;DHT22;3264;42.862;25.098;2023-09-08T07:41:24;24.60;90.90
6462;DHT22;3264;42.862;25.098;2023-09-08T07:43:55;24.10;92.10
6462;DHT22;3264;42.862;25.098;2023-09-08T07:46:23;23.90;93.40
6462;DHT22;3264;42.862;25.098;2023-09-08T07:48:57;24.70;93.80
6462;DHT22;3264;42.862;25.098;2023-09-08T07:51:25;25.40;92.40
6462;DHT22;3264;42.862;25.098;2023-09-08T07:53:55;25.80;91.00
6462;DHT22;3264;42.862;25.098;2023-09-08T07:56:24;26.00;91.40
6462;DHT22;3264;42.862;25.098;2023-09-08T07:59:02;26.30;91.30
6462;DHT22;3264;42.862;25.098;2023-09-08T08:01:34;25.90;88.40
6462;DHT22;3264;42.862;25.098;2023-09-08T08:04:02;26.10;91.10
6462;DHT22;3264;42.862;25.098;2023-09-08T08:06:30;26.40;90.00
6462;DHT22;3264;42.862;25.098;2023-09-08T08:09:04;26.60;90.20
6462;DHT22;3264;42.862;25.098;2023-09-08T08:11:34;26.90;89.30
6462;DHT22;3264;42.862;25.098;2023-09-08T08:14:01;27.20;85.00
6462;DHT22;3264;42.862;25.098;2023-09-08T08:16:30;27.50;82.60
6462;DHT22;3264;42.862;25.098;2023-09-08T08:19:02;27.90;83.20
6462;DHT22;3264;42.862;25.098;2023-09-08T08:21:32;28.10;79.80
6462;DHT22;3264;42.862;25.098;2023-09-08T08:24:06;28.10;79.60
6462;DHT22;3264;42.862;25.098;2023-09-08T08:26:35;28.20;80.30
6462;DHT22;3264;42.862;25.098;2023-09-08T08:29:03;29.10;78.80
6462;DHT22;3264;42.862;25.098;2023-09-08T08:31:31;28.90;78.50
6462;DHT22;3264;42.862;25.098;2023-09-08T08:34:01;28.80;78.10
6462;DHT22;3264;42.862;25.098;2023-09-08T08:36:42;28.50;74.50
6462;DHT22;3264;42.862;25.098;2023-09-08T08:39:25;28.60;75.30
6462;DHT22;3264;42.862;25.098;2023-09-08T08:42:00;27.90;68.60
6462;DHT22;3264;42.862;25.098;2023-09-08T08:44:42;27.90;70.30
6462;DHT22;3264;42.862;25.098;2023-09-08T08:47:16;27.80;71.90
6462;DHT22;3264;42.862;25.098;2023-09-08T08:49:50;28.30;70.10
6462;DHT22;3264;42.862;25.098;2023-09-08T08:52:21;28.50;71.20
6462;DHT22;3264;42.862;25.098;2023-09-08T08:54:51;28.70;74.70
6462;DHT22;3264;42.862;25.098;2023-09-08T08:57:31;29.00;69.70
6462;DHT22;3264;42.862;25.098;2023-09-08T09:00:07;28.60;66.20
6462;DHT22;3264;42.862;25.098;2023-09-08T09:02:36;28.10;70.00
6462;DHT22;3264;42.862;25.098;2023-09-08T09:05:07;28.30;72.70
6462;DHT22;3264;42.862;25.098;2023-09-08T09:07:36;28.70;68.70
6462;DHT22;3264;42.862;25.098;2023-09-08T09:10:09;29.00;68.10
6462;DHT22;3264;42.862;25.098;2023-09-08T09:12:37;29.60;68.80
6462;DHT22;3264;42.862;25.098;2023-09-08T09:15:06;29.90;66.50
6462;DHT22;3264;42.862;25.098;2023-09-08T09:17:35;29.20;65.80
6462;DHT22;3264;42.862;25.098;2023-09-08T09:20:14;29.10;66.70
6462;DHT22;3264;42.862;25.098;2023-09-08T09:22:43;29.40;67.20
6462;DHT22;3264;42.862;25.098;2023-09-08T09:25:24;30.00;64.50
6462;DHT22;3264;42.862;25.098;2023-09-08T09:30:48;30.10;64.10
6462;DHT22;3264;42.862;25.098;2023-09-08T09:33:20;29.80;64.30
6462;DHT22;3264;42.862;25.098;2023-09-08T09:35:48;29.20;63.30
6462;DHT22;3264;42.862;25.098;2023-09-08T09:38:35;28.10;65.90
6462;DHT22;3264;42.862;25.098;2023-09-08T09:41:07;27.50;71.40
6462;DHT22;3264;42.862;25.098;2023-09-08T09:43:35;27.90;73.20
6462;DHT22;3264;42.862;25.098;2023-09-08T09:46:10;28.50;65.40
6462;DHT22;3264;42.862;25.098;2023-09-08T09:48:50;28.90;65.90
6462;DHT22;3264;42.862;25.098;2023-09-08T09:51:20;27.50;66.60
6462;DHT22;3264;42.862;25.098;2023-09-08T09:53:52;27.40;72.50
6462;DHT22;3264;42.862;25.098;2023-09-08T09:56:43;27.30;72.20
6462;DHT22;3264;42.862;25.098;2023-09-08T09:59:15;27.30;73.30
6462;DHT22;3264;42.862;25.098;2023-09-08T10:05:11;28.10;72.80
6462;DHT22;3264;42.862;25.098;2023-09-08T10:11:49;28.40;67.80
6462;DHT22;3264;42.862;25.098;2023-09-08T10:21:21;27.40;71.60
6462;DHT22;3264;42.862;25.098;2023-09-08T10:24:15;27.40;74.60
6462;DHT22;3264;42.862;25.098;2023-09-08T10:26:47;27.60;70.80
6462;DHT22;3264;42.862;25.098;2023-09-08T10:29:36;27.90;67.60
6462;DHT22;3264;42.862;25.098;2023-09-08T10:32:11;28.10;69.20
6462;DHT22;3264;42.862;25.098;2023-09-08T10:34:44;28.30;66.90
6462;DHT22;3264;42.862;25.098;2023-09-08T10:37:20;27.90;66.90
6462;DHT22;3264;42.862;25.098;2023-09-08T10:39:47;27.60;70.60
6462;DHT22;3264;42.862;25.098;2023-09-08T10:42:25;27.40;73.10
6462;DHT22;3264;42.862;25.098;2023-09-08T10:45:01;27.10;74.00
6462;DHT22;3264;42.862;25.098;2023-09-08T10:47:32;27.00;75.30
6462;DHT22;3264;42.862;25.098;2023-09-08T10:50:16;26.60;77.00
6462;DHT22;3264;42.862;25.098;2023-09-08T10:52:45;26.60;81.00
6462;DHT22;3264;42.862;25.098;2023-09-08T10:55:13;26.60;80.00
6462;DHT22;3264;42.862;25.098;2023-09-08T10:57:48;26.70;79.10
6462;DHT22;3264;42.862;25.098;2023-09-08T11:00:23;26.90;78.80
6462;DHT22;3264;42.862;25.098;2023-09-08T11:02:52;26.90;77.10
6462;DHT22;3264;42.862;25.098;2023-09-08T11:05:21;26.90;76.70
6462;DHT22;3264;42.862;25.098;2023-09-08T11:07:50;26.50;76.40
6462;DHT22;3264;42.862;25.098;2023-09-08T11:10:22;26.70;74.90
6462;DHT22;3264;42.862;25.098;2023-09-08T11:12:56;27.30;74.00
6462;DHT22;3264;42.862;25.098;2023-09-08T11:15:25;28.20;72.60
6462;DHT22;3264;42.862;25.098;2023-09-08T11:18:15;29.10;71.20
6462;DHT22;3264;42.862;25.098;2023-09-08T11:20:50;29.30;68.00
6462;DHT22;3264;42.862;25.098;2023-09-08T11:23:21;29.60;66.90
6462;DHT22;3264;42.862;25.098;2023-09-08T11:25:50;29.00;65.00
6462;DHT22;3264;42.862;25.098;2023-09-08T11:28:18;28.50;67.50
6462;DHT22;3264;42.862;25.098;2023-09-08T11:30:49;28.40;66.30
6462;DHT22;3264;42.862;25.098;2023-09-08T11:33:19;28.40;68.10
6462;DHT22;3264;42.862;25.098;2023-09-08T11:35:51;28.40;65.90
6462;DHT22;3264;42.862;25.098;2023-09-08T11:38:24;27.70;66.00
6462;DHT22;3264;42.862;25.098;2023-09-08T11:40:53;27.80;71.40
6462;DHT22;3264;42.862;25.098;2023-09-08T11:43:22;28.20;65.30
6462;DHT22;3264;42.862;25.098;2023-09-08T11:45:51;28.40;65.30
6462;DHT22;3264;42.862;25.098;2023-09-08T11:48:21;28.90;64.50
6462;DHT22;3264;42.862;25.098;2023-09-08T11:50:52;28.70;67.20
6462;DHT22;3264;42.862;25.098;2023-09-08T11:53:21;28.20;66.00
6462;DHT22;3264;42.862;25.098;2023-09-08T11:55:51;27.90;68.30
6462;DHT22;3264;42.862;25.098;2023-09-08T11:58:32;27.60;69.60
6462;DHT22;3264;42.862;25.098;2023-09-08T12:01:15;27.80;69.90
6462;DHT22;3264;42.862;25.098;2023-09-08T12:03:54;27.80;69.30
6462;DHT22;3264;42.862;25.098;2023-09-08T12:06:25;27.50;68.50
6462;DHT22;3264;42.862;25.098;2023-09-08T12:08:58;27.80;70.00
6462;DHT22;3264;42.862;25.098;2023-09-08T12:11:33;27.90;65.60
6462;DHT22;3264;42.862;25.098;2023-09-08T12:14:07;28.20;70.50
6462;DHT22;3264;42.862;25.098;2023-09-08T12:16:39;28.60;65.60
6462;DHT22;3264;42.862;25.098;2023-09-08T12:19:08;28.50;64.00
6462;DHT22;3264;42.862;25.098;2023-09-08T12:21:54;28.20;64.80
6462;DHT22;3264;42.862;25.098;2023-09-08T12:24:46;27.70;64.40
6462;DHT22;3264;42.862;25.098;2023-09-08T12:27:15;27.70;70.50
6462;DHT22;3264;42.862;25.098;2023-09-08T12:30:05;27.90;63.50
6462;DHT22;3264;42.862;25.098;2023-09-08T12:32:36;28.40;65.00
6462;DHT22;3264;42.862;25.098;2023-09-08T12:35:05;28.70;65.80
6462;DHT22;3264;42.862;25.098;2023-09-08T12:37:33;28.60;66.20
6462;DHT22;3264;42.862;25.098;2023-09-08T12:40:03;28.80;64.70
6462;DHT22;3264;42.862;25.098;2023-09-08T12:42:31;28.80;63.70
6462;DHT22;3264;42.862;25.098;2023-09-08T12:44:59;28.80;64.10
6462;DHT22;3264;42.862;25.098;2023-09-08T12:47:28;28.40;65.80
6462;DHT22;3264;42.862;25.098;2023-09-08T12:49:59;27.90;65.00
6462;DHT22;3264;42.862;25.098;2023-09-08T12:52:27;27.50;67.10
6462;DHT22;3264;42.862;25.098;2023-09-08T12:54:55;27.20;66.80
6462;DHT22;3264;42.862;25.098;2023-09-08T12:57:24;26.80;70.30
6462;DHT22;3264;42.862;25.098;2023-09-08T12:59:52;26.60;72.30
6462;DHT22;3264;42.862;25.098;2023-09-08T13:02:21;26.30;73.30
6462;DHT22;3264;42.862;25.098;2023-09-08T13:04:49;26.30;71.40
6462;DHT22;3264;42.862;25.098;2023-09-08T13:07:19;26.30;72.00
6462;DHT22;3264;42.862;25.098;2023-09-08T13:09:47;26.30;71.00
6462;DHT22;3264;42.862;25.098;2023-09-08T13:12:14;26.40;70.70
6462;DHT22;3264;42.862;25.098;2023-09-08T13:14:42;26.30;69.20
6462;DHT22;3264;42.862;25.098;2023-09-08T13:17:10;26.40;70.50
6462;DHT22;3264;42.862;25.098;2023-09-08T13:19:39;26.40;69.40
6462;DHT22;3264;42.862;25.098;2023-09-08T13:22:07;26.60;69.30
6462;DHT22;3264;42.862;25.098;2023-09-08T13:24:37;26.10;68.10
6462;DHT22;3264;42.862;25.098;2023-09-08T13:27:05;26.10;69.70
6462;DHT22;3264;42.862;25.098;2023-09-08T13:29:33;26.60;71.80
6462;DHT22;3264;42.862;25.098;2023-09-08T13:32:01;26.80;69.50
6462;DHT22;3264;42.862;25.098;2023-09-08T13:34:29;27.00;68.70
6462;DHT22;3264;42.862;25.098;2023-09-08T13:36:58;27.00;68.70
6462;DHT22;3264;42.862;25.098;2023-09-08T13:39:27;26.70;70.50
6462;DHT22;3264;42.862;25.098;2023-09-08T13:41:58;26.70;70.80
6462;DHT22;3264;42.862;25.098;2023-09-08T13:44:27;26.80;73.20
6462;DHT22;3264;42.862;25.098;2023-09-08T13:46:56;26.60;70.30
6462;DHT22;3264;42.862;25.098;2023-09-08T13:49:23;26.50;73.10
6462;DHT22;3264;42.862;25.098;2023-09-08T13:51:51;26.40;75.00
6462;DHT22;3264;42.862;25.098;2023-09-08T13:54:21;26.40;76.00
6462;DHT22;3264;42.862;25.098;2023-09-08T13:57:00;26.20;77.90
6462;DHT22;3264;42.862;25.098;2023-09-08T13:59:28;26.10;74.20
6462;DHT22;3264;42.862;25.098;2023-09-08T14:01:56;26.00;76.50
6462;DHT22;3264;42.862;25.098;2023-09-08T14:04:26;25.90;77.50
6462;DHT22;3264;42.862;25.098;2023-09-08T14:06:53;25.80;77.70
6462;DHT22;3264;42.862;25.098;2023-09-08T14:09:21;25.80;74.80
6462;DHT22;3264;42.862;25.098;2023-09-08T14:11:49;25.70;75.30
6462;DHT22;3264;42.862;25.098;2023-09-08T14:14:19;25.80;77.10
6462;DHT22;3264;42.862;25.098;2023-09-08T14:16:48;25.90;79.30
6462;DHT22;3264;42.862;25.098;2023-09-08T14:19:16;25.80;81.40
6462;DHT22;3264;42.862;25.098;2023-09-08T14:21:44;25.80;82.00
6462;DHT22;3264;42.862;25.098;2023-09-08T14:24:11;25.80;80.50
6462;DHT22;3264;42.862;25.098;2023-09-08T14:26:39;25.80;79.50
6462;DHT22;3264;42.862;25.098;2023-09-08T14:29:08;25.60;79.00
6462;DHT22;3264;42.862;25.098;2023-09-08T14:31:37;25.50;79.70
6462;DHT22;3264;42.862;25.098;2023-09-08T14:34:05;25.50;82.00
6462;DHT22;3264;42.862;25.098;2023-09-08T14:36:32;25.50;83.60
6462;DHT22;3264;42.862;25.098;2023-09-08T14:39:02;25.50;82.40
6462;DHT22;3264;42.862;25.098;2023-09-08T14:41:30;25.40;85.00
6462;DHT22;3264;42.862;25.098;2023-09-08T14:43:57;25.40;86.20
6462;DHT22;3264;42.862;25.098;2023-09-08T14:46:25;25.20;87.10
6462;DHT22;3264;42.862;25.098;2023-09-08T14:48:54;25.10;88.50
6462;DHT22;3264;42.862;25.098;2023-09-08T14:51:23;25.10;89.90
6462;DHT22;3264;42.862;25.098;2023-09-08T14:53:51;25.00;90.60
6462;DHT22;3264;42.862;25.098;2023-09-08T14:56:18;24.90;91.30
6462;DHT22;3264;42.862;25.098;2023-09-08T14:58:47;24.90;91.10
6462;DHT22;3264;42.862;25.098;2023-09-08T15:01:15;24.80;91.10
6462;DHT22;3264;42.862;25.098;2023-09-08T15:03:44;24.70;91.00
6462;DHT22;3264;42.862;25.098;2023-09-08T15:06:13;24.70;91.60
6462;DHT22;3264;42.862;25.098;2023-09-08T15:08:41;24.50;92.10
6462;DHT22;3264;42.862;25.098;2023-09-08T15:11:12;24.40;92.20
6462;DHT22;3264;42.862;25.098;2023-09-08T15:13:42;24.40;92.60
6462;DHT22;3264;42.862;25.098;2023-09-08T15:16:11;24.30;92.80
6462;DHT22;3264;42.862;25.098;2023-09-08T15:18:41;24.30;93.50
6462;DHT22;3264;42.862;25.098;2023-09-08T15:21:09;24.20;93.60
6462;DHT22;3264;42.862;25.098;2023-09-08T15:23:38;23.90;93.70
6462;DHT22;3264;42.862;25.098;2023-09-08T15:26:06;23.90;94.20
6462;DHT22;3264;42.862;25.098;2023-09-08T15:28:34;23.80;94.90
6462;DHT22;3264;42.862;25.098;2023-09-08T15:31:04;23.70;95.20
6462;DHT22;3264;42.862;25.098;2023-09-08T15:33:32;23.60;96.10
6462;DHT22;3264;42.862;25.098;2023-09-08T15:36:01;23.60;96.30
6462;DHT22;3264;42.862;25.098;2023-09-08T15:38:28;23.60;96.60
6462;DHT22;3264;42.862;25.098;2023-09-08T15:41:15;23.60;96.30
6462;DHT22;3264;42.862;25.098;2023-09-08T15:43:48;23.50;96.60
6462;DHT22;3264;42.862;25.098;2023-09-08T15:46:18;23.40;96.50
6462;DHT22;3264;42.862;25.098;2023-09-08T15:48:46;23.30;96.70
6462;DHT22;3264;42.862;25.098;2023-09-08T15:51:14;23.20;97.10
6462;DHT22;3264;42.862;25.098;2023-09-08T15:53:42;23.20;97.50
6462;DHT22;3264;42.862;25.098;2023-09-08T15:56:10;23.10;97.60
6462;DHT22;3264;42.862;25.098;2023-09-08T15:58:39;23.00;98.30
6462;DHT22;3264;42.862;25.098;2023-09-08T16:01:10;22.90;98.90
6462;DHT22;3264;42.862;25.098;2023-09-08T16:03:37;22.80;99.20
6462;DHT22;3264;42.862;25.098;2023-09-08T16:06:06;22.80;99.50
6462;DHT22;3264;42.862;25.098;2023-09-08T16:08:37;22.70;99.90
6462;DHT22;3264;42.862;25.098;2023-09-08T16:11:05;22.60;99.90
6462;DHT22;3264;42.862;25.098;2023-09-08T16:13:33;22.60;99.90
6462;DHT22;3264;42.862;25.098;2023-09-08T16:16:04;22.50;99.90
6462;DHT22;3264;42.862;25.098;2023-09-08T16:18:33;22.40;99.90
6462;DHT22;3264;42.862;25.098;2023-09-08T16:21:00;22.30;99.90
6462;DHT22;3264;42.862;25.098;2023-09-08T16:23:29;22.30;99.90
6462;DHT22;3264;42.862;25.098;2023-09-08T16:25:57;22.20;99.90
6462;DHT22;3264;42.862;25.098;2023-09-08T16:28:25;22.10;99.90
6462;DHT22;3264;42.862;25.098;2023-09-08T16:30:53;22.10;99.90
6462;DHT22;3264;42.862;25.098;2023-09-08T16:33:24;22.10;99.90
6462;DHT22;3264;42.862;25.098;2023-09-08T16:35:54;22.00;99.90
6462;DHT22;3264;42.862;25.098;2023-09-08T16:38:22;22.00;99.90
6462;DHT22;3264;42.862;25.098;2023-09-08T16:40:49;21.90;99.90
6462;DHT22;3264;42.862;25.098;2023-09-08T16:43:18;21.90;99.90
6462;DHT22;3264;42.862;25.098;2023-09-08T16:45:46;21.80;99.90
6462;DHT22;3264;42.862;25.098;2023-09-08T16:48:14;21.70;99.90
6462;DHT22;3264;42.862;25.098;2023-09-08T16:50:43;21.70;99.90
6462;DHT22;3264;42.862;25.098;2023-09-08T16:53:12;21.60;99.90
6462;DHT22;3264;42.862;25.098;2023-09-08T16:55:40;21.50;99.90
6462;DHT22;3264;42.862;25.098;2023-09-08T16:58:08;21.50;99.90
6462;DHT22;3264;42.862;25.098;2023-09-08T17:00:36;21.50;99.90
6462;DHT22;3264;42.862;25.098;2023-09-08T17:03:04;21.50;99.90